sensor_id;sensor_type;location;lat;lon;timestamp;P1;P2;P0
21358;PMS7003;13506;50.852;20.632;2023-07-20T00:00:05;25.50;22.25;15.00
21358;PMS7003;13506;50.852;20.632;2023-07-20T00:03:10;22.75;21.25;15.00
21358;PMS7003;13506;50.852;20.632;2023-07-20T00:05:42;23.50;20.00;14.00
21358;PMS7003;13506;50.852;20.632;2023-07-20T00:08:10;23.00;20.75;14.00
21358;PMS7003;13506;50.852;20.632;2023-07-20T00:10:41;21.25;20.00;13.50
21358;PMS7003;13506;50.852;20.632;2023-07-20T00:13:11;23.25;22.50;14.75
21358;PMS7003;13506;50.852;20.632;2023-07-20T00:15:41;26.75;24.00;14.00
21358;PMS7003;13506;50.852;20.632;2023-07-20T00:18:09;23.25;21.50;14.75
21358;PMS7003;13506;50.852;20.632;2023-07-20T00:20:37;22.75;21.75;15.00
21358;PMS7003;13506;50.852;20.632;2023-07-20T00:23:06;27.75;24.50;15.75
21358;PMS7003;13506;50.852;20.632;2023-07-20T00:25:34;27.00;24.25;16.00
21358;PMS7003;13506;50.852;20.632;2023-07-20T00:28:03;25.00;22.25;15.00
21358;PMS7003;13506;50.852;20.632;2023-07-20T00:30:32;27.75;20.50;15.00
21358;PMS7003;13506;50.852;20.632;2023-07-20T00:33:00;26.50;25.00;17.25
21358;PMS7003;13506;50.852;20.632;2023-07-20T00:35:28;23.00;20.25;12.50
21358;PMS7003;13506;50.852;20.632;2023-07-20T00:37:56;23.25;21.25;15.25
21358;PMS7003;13506;50.852;20.632;2023-07-20T00:40:24;22.50;20.50;12.50
21358;PMS7003;13506;50.852;20.632;2023-07-20T00:42:52;22.75;22.75;15.00
21358;PMS7003;13506;50.852;20.632;2023-07-20T00:45:24;23.25;23.25;13.00
21358;PMS7003;13506;50.852;20.632;2023-07-20T00:47:53;18.00;17.50;13.25
21358;PMS7003;13506;50.852;20.632;2023-07-20T00:50:22;21.60;21.40;14.40
21358;PMS7003;13506;50.852;20.632;2023-07-20T00:52:50;23.25;22.25;14.50
21358;PMS7003;13506;50.852;20.632;2023-07-20T00:55:18;24.00;23.00;14.25
21358;PMS7003;13506;50.852;20.632;2023-07-20T00:57:47;21.00;19.75;13.00
21358;PMS7003;13506;50.852;20.632;2023-07-20T01:00:15;24.00;21.25;14.00
21358;PMS7003;13506;50.852;20.632;2023-07-20T01:02:45;26.50;23.75;15.75
21358;PMS7003;13506;50.852;20.632;2023-07-20T01:05:13;23.50;22.00;15.00
21358;PMS7003;13506;50.852;20.632;2023-07-20T01:07:45;20.00;20.00;14.50
21358;PMS7003;13506;50.852;20.632;2023-07-20T01:10:25;25.75;25.25;16.50
21358;PMS7003;13506;50.852;20.632;2023-07-20T01:12:58;28.25;25.25;16.75
21358;PMS7003;13506;50.852;20.632;2023-07-20T01:15:28;23.50;22.75;16.00
21358;PMS7003;13506;50.852;20.632;2023-07-20T01:17:57;23.40;22.00;15.00
21358;PMS7003;13506;50.852;20.632;2023-07-20T01:20:27;23.00;20.00;12.40
21358;PMS7003;13506;50.852;20.632;2023-07-20T01:23:05;24.25;23.25;15.50
21358;PMS7003;13506;50.852;20.632;2023-07-20T01:25:58;28.75;23.00;16.00
21358;PMS7003;13506;50.852;20.632;2023-07-20T01:28:49;20.40;19.00;13.00
21358;PMS7003;13506;50.852;20.632;2023-07-20T01:31:36;28.25;27.50;16.25
21358;PMS7003;13506;50.852;20.632;2023-07-20T01:34:07;22.80;20.80;13.60
21358;PMS7003;13506;50.852;20.632;2023-07-20T01:36:38;23.00;22.25;15.00
21358;PMS7003;13506;50.852;20.632;2023-07-20T01:39:08;21.75;19.50;12.75
21358;PMS7003;13506;50.852;20.632;2023-07-20T01:41:37;26.75;25.25;14.75
21358;PMS7003;13506;50.852;20.632;2023-07-20T01:44:05;25.40;21.80;14.80
21358;PMS7003;13506;50.852;20.632;2023-07-20T01:46:33;21.00;21.00;14.50
21358;PMS7003;13506;50.852;20.632;2023-07-20T01:49:03;23.50;19.25;13.50
21358;PMS7003;13506;50.852;20.632;2023-07-20T01:51:31;21.80;19.80;13.00
21358;PMS7003;13506;50.852;20.632;2023-07-20T01:53:59;22.20;21.00;13.80
21358;PMS7003;13506;50.852;20.632;2023-07-20T01:56:27;23.75;22.50;14.25
21358;PMS7003;13506;50.852;20.632;2023-07-20T01:58:55;25.00;22.25;15.00
21358;PMS7003;13506;50.852;20.632;2023-07-20T02:01:24;22.25;22.25;16.00
21358;PMS7003;13506;50.852;20.632;2023-07-20T02:03:54;24.00;22.00;15.00
21358;PMS7003;13506;50.852;20.632;2023-07-20T02:06:23;26.50;25.00;15.50
21358;PMS7003;13506;50.852;20.632;2023-07-20T02:08:51;28.50;26.00;17.50
21358;PMS7003;13506;50.852;20.632;2023-07-20T02:11:20;24.75;23.00;15.25
21358;PMS7003;13506;50.852;20.632;2023-07-20T02:13:47;29.75;25.25;17.50
21358;PMS7003;13506;50.852;20.632;2023-07-20T02:16:16;24.75;23.00;15.50
21358;PMS7003;13506;50.852;20.632;2023-07-20T02:18:43;25.50;23.25;15.25
21358;PMS7003;13506;50.852;20.632;2023-07-20T02:21:12;30.00;25.25;18.75
21358;PMS7003;13506;50.852;20.632;2023-07-20T02:23:41;32.25;27.50;18.50
21358;PMS7003;13506;50.852;20.632;2023-07-20T02:26:09;26.75;25.50;17.00
21358;PMS7003;13506;50.852;20.632;2023-07-20T02:28:37;30.00;26.50;16.75
21358;PMS7003;13506;50.852;20.632;2023-07-20T02:31:07;23.25;20.50;15.25
21358;PMS7003;13506;50.852;20.632;2023-07-20T02:33:34;22.25;22.25;15.00
21358;PMS7003;13506;50.852;20.632;2023-07-20T02:36:03;22.50;20.50;14.00
21358;PMS7003;13506;50.852;20.632;2023-07-20T02:38:31;22.50;21.25;13.25
21358;PMS7003;13506;50.852;20.632;2023-07-20T02:41:00;21.00;18.75;14.00
21358;PMS7003;13506;50.852;20.632;2023-07-20T02:43:28;20.75;20.00;13.50
21358;PMS7003;13506;50.852;20.632;2023-07-20T02:45:56;26.00;20.25;13.75
21358;PMS7003;13506;50.852;20.632;2023-07-20T02:48:24;20.75;18.75;12.25
21358;PMS7003;13506;50.852;20.632;2023-07-20T02:50:53;22.40;21.80;13.80
21358;PMS7003;13506;50.852;20.632;2023-07-20T02:53:20;21.60;19.60;13.00
21358;PMS7003;13506;50.852;20.632;2023-07-20T02:55:49;19.50;19.50;14.00
21358;PMS7003;13506;50.852;20.632;2023-07-20T02:58:18;20.50;20.50;13.25
21358;PMS7003;13506;50.852;20.632;2023-07-20T03:00:46;24.25;21.25;14.00
21358;PMS7003;13506;50.852;20.632;2023-07-20T03:03:14;22.50;20.50;13.25
21358;PMS7003;13506;50.852;20.632;2023-07-20T03:05:42;20.80;19.60;12.80
21358;PMS7003;13506;50.852;20.632;2023-07-20T03:08:10;22.25;21.00;14.00
21358;PMS7003;13506;50.852;20.632;2023-07-20T03:10:39;27.50;25.75;18.00
21358;PMS7003;13506;50.852;20.632;2023-07-20T03:13:07;24.25;20.75;14.00
21358;PMS7003;13506;50.852;20.632;2023-07-20T03:15:36;25.00;22.00;15.00
21358;PMS7003;13506;50.852;20.632;2023-07-20T03:18:04;24.00;21.25;15.25
21358;PMS7003;13506;50.852;20.632;2023-07-20T03:20:32;24.25;24.00;17.00
21358;PMS7003;13506;50.852;20.632;2023-07-20T03:23:02;24.25;21.00;14.50
21358;PMS7003;13506;50.852;20.632;2023-07-20T03:25:30;23.50;23.00;15.25
21358;PMS7003;13506;50.852;20.632;2023-07-20T03:27:59;24.75;22.50;16.25
21358;PMS7003;13506;50.852;20.632;2023-07-20T03:30:28;21.00;20.25;13.00
21358;PMS7003;13506;50.852;20.632;2023-07-20T03:32:57;22.00;20.50;13.50
21358;PMS7003;13506;50.852;20.632;2023-07-20T03:35:25;22.25;21.50;13.50
21358;PMS7003;13506;50.852;20.632;2023-07-20T03:37:53;24.50;23.00;16.00
21358;PMS7003;13506;50.852;20.632;2023-07-20T03:40:21;21.25;19.25;14.75
21358;PMS7003;13506;50.852;20.632;2023-07-20T03:42:51;23.50;21.75;16.25
21358;PMS7003;13506;50.852;20.632;2023-07-20T03:45:19;23.00;21.00;15.50
21358;PMS7003;13506;50.852;20.632;2023-07-20T03:47:49;26.25;24.00;16.50
21358;PMS7003;13506;50.852;20.632;2023-07-20T03:50:19;29.25;25.00;18.00
21358;PMS7003;13506;50.852;20.632;2023-07-20T03:52:46;25.00;22.50;16.00
21358;PMS7003;13506;50.852;20.632;2023-07-20T03:55:15;28.50;25.75;18.75
21358;PMS7003;13506;50.852;20.632;2023-07-20T03:57:42;28.00;26.75;18.00
21358;PMS7003;13506;50.852;20.632;2023-07-20T04:00:11;26.50;25.50;16.50
21358;PMS7003;13506;50.852;20.632;2023-07-20T04:02:40;26.75;25.50;16.25
21358;PMS7003;13506;50.852;20.632;2023-07-20T04:05:08;27.75;24.75;16.50
21358;PMS7003;13506;50.852;20.632;2023-07-20T04:07:37;26.25;25.00;16.00
21358;PMS7003;13506;50.852;20.632;2023-07-20T04:10:06;20.80;19.80;12.60
21358;PMS7003;13506;50.852;20.632;2023-07-20T04:12:35;22.60;20.60;14.20
21358;PMS7003;13506;50.852;20.632;2023-07-20T04:15:03;22.80;21.00;15.40
21358;PMS7003;13506;50.852;20.632;2023-07-20T04:17:32;22.00;19.80;13.00
21358;PMS7003;13506;50.852;20.632;2023-07-20T04:20:00;18.80;18.20;12.20
21358;PMS7003;13506;50.852;20.632;2023-07-20T04:22:29;18.00;18.00;11.60
21358;PMS7003;13506;50.852;20.632;2023-07-20T04:24:59;21.80;19.60;11.80
21358;PMS7003;13506;50.852;20.632;2023-07-20T04:27:27;16.80;16.80;11.00
21358;PMS7003;13506;50.852;20.632;2023-07-20T04:29:55;20.60;19.20;13.60
21358;PMS7003;13506;50.852;20.632;2023-07-20T04:32:24;19.20;14.80;9.00
21358;PMS7003;13506;50.852;20.632;2023-07-20T04:34:53;13.00;13.00;9.00
21358;PMS7003;13506;50.852;20.632;2023-07-20T04:37:21;13.80;13.40;9.00
21358;PMS7003;13506;50.852;20.632;2023-07-20T04:39:50;13.40;13.00;8.40
21358;PMS7003;13506;50.852;20.632;2023-07-20T04:42:19;13.00;11.60;7.40
21358;PMS7003;13506;50.852;20.632;2023-07-20T04:44:47;18.80;17.80;11.40
21358;PMS7003;13506;50.852;20.632;2023-07-20T04:47:15;16.60;15.60;9.00
21358;PMS7003;13506;50.852;20.632;2023-07-20T04:49:44;17.40;14.40;10.20
21358;PMS7003;13506;50.852;20.632;2023-07-20T04:52:12;16.00;15.80;9.40
21358;PMS7003;13506;50.852;20.632;2023-07-20T04:54:40;16.80;15.60;10.40
21358;PMS7003;13506;50.852;20.632;2023-07-20T04:57:11;19.40;17.00;11.00
21358;PMS7003;13506;50.852;20.632;2023-07-20T04:59:46;16.80;16.80;10.80
21358;PMS7003;13506;50.852;20.632;2023-07-20T05:02:14;18.20;15.80;10.20
21358;PMS7003;13506;50.852;20.632;2023-07-20T05:04:42;17.00;15.00;10.80
21358;PMS7003;13506;50.852;20.632;2023-07-20T05:07:10;16.80;13.00;7.80
21358;PMS7003;13506;50.852;20.632;2023-07-20T05:09:38;27.75;24.50;16.25
21358;PMS7003;13506;50.852;20.632;2023-07-20T05:12:07;23.00;19.50;13.00
21358;PMS7003;13506;50.852;20.632;2023-07-20T05:14:38;10.80;10.80;7.20
21358;PMS7003;13506;50.852;20.632;2023-07-20T05:17:08;11.40;10.80;7.00
21358;PMS7003;13506;50.852;20.632;2023-07-20T05:19:37;12.80;11.40;7.20
21358;PMS7003;13506;50.852;20.632;2023-07-20T05:22:05;10.20;10.20;7.00
21358;PMS7003;13506;50.852;20.632;2023-07-20T05:24:33;12.40;12.40;8.00
21358;PMS7003;13506;50.852;20.632;2023-07-20T05:27:01;13.40;13.00;8.00
21358;PMS7003;13506;50.852;20.632;2023-07-20T05:29:30;14.00;14.00;8.60
21358;PMS7003;13506;50.852;20.632;2023-07-20T05:31:58;14.80;12.40;8.00
21358;PMS7003;13506;50.852;20.632;2023-07-20T05:34:28;12.20;11.00;7.40
21358;PMS7003;13506;50.852;20.632;2023-07-20T05:36:56;11.40;11.40;6.80
21358;PMS7003;13506;50.852;20.632;2023-07-20T05:39:25;12.20;11.00;6.00
21358;PMS7003;13506;50.852;20.632;2023-07-20T05:41:52;12.00;10.40;5.40
21358;PMS7003;13506;50.852;20.632;2023-07-20T05:44:21;11.80;11.80;6.60
21358;PMS7003;13506;50.852;20.632;2023-07-20T05:46:48;12.80;12.80;8.20
21358;PMS7003;13506;50.852;20.632;2023-07-20T05:49:17;11.00;10.80;6.80
21358;PMS7003;13506;50.852;20.632;2023-07-20T05:51:46;13.40;12.20;7.00
21358;PMS7003;13506;50.852;20.632;2023-07-20T05:54:14;14.20;12.40;8.60
21358;PMS7003;13506;50.852;20.632;2023-07-20T05:56:42;12.80;11.20;6.40
21358;PMS7003;13506;50.852;20.632;2023-07-20T05:59:10;13.60;12.60;7.60
21358;PMS7003;13506;50.852;20.632;2023-07-20T06:01:38;10.60;10.20;6.00
21358;PMS7003;13506;50.852;20.632;2023-07-20T06:04:07;13.40;11.40;7.00
21358;PMS7003;13506;50.852;20.632;2023-07-20T06:06:35;14.60;12.40;8.00
21358;PMS7003;13506;50.852;20.632;2023-07-20T06:09:04;11.20;11.00;5.80
21358;PMS7003;13506;50.852;20.632;2023-07-20T06:11:35;14.60;14.20;9.00
21358;PMS7003;13506;50.852;20.632;2023-07-20T06:14:03;15.40;14.60;8.40
21358;PMS7003;13506;50.852;20.632;2023-07-20T06:16:31;15.00;14.00;8.60
21358;PMS7003;13506;50.852;20.632;2023-07-20T06:19:00;11.80;10.80;6.20
21358;PMS7003;13506;50.852;20.632;2023-07-20T06:21:27;15.40;12.20;7.00
21358;PMS7003;13506;50.852;20.632;2023-07-20T06:23:57;12.20;12.20;7.60
21358;PMS7003;13506;50.852;20.632;2023-07-20T06:26:26;14.60;13.40;8.80
21358;PMS7003;13506;50.852;20.632;2023-07-20T06:28:56;12.00;11.80;7.80
21358;PMS7003;13506;50.852;20.632;2023-07-20T06:31:24;11.20;9.60;5.20
21358;PMS7003;13506;50.852;20.632;2023-07-20T06:33:52;16.40;13.00;7.20
21358;PMS7003;13506;50.852;20.632;2023-07-20T06:36:20;12.00;11.80;8.00
21358;PMS7003;13506;50.852;20.632;2023-07-20T06:38:48;12.60;11.00;8.00
21358;PMS7003;13506;50.852;20.632;2023-07-20T06:41:16;14.00;13.60;8.00
21358;PMS7003;13506;50.852;20.632;2023-07-20T06:43:46;12.40;11.60;7.80
21358;PMS7003;13506;50.852;20.632;2023-07-20T06:46:14;13.40;11.00;6.80
21358;PMS7003;13506;50.852;20.632;2023-07-20T06:48:42;11.20;11.20;7.60
21358;PMS7003;13506;50.852;20.632;2023-07-20T06:51:10;12.80;12.20;7.80
21358;PMS7003;13506;50.852;20.632;2023-07-20T06:53:38;14.40;14.00;9.20
21358;PMS7003;13506;50.852;20.632;2023-07-20T06:56:07;14.60;12.40;9.00
21358;PMS7003;13506;50.852;20.632;2023-07-20T06:58:35;13.60;12.00;8.00
21358;PMS7003;13506;50.852;20.632;2023-07-20T07:01:05;13.40;13.00;8.00
21358;PMS7003;13506;50.852;20.632;2023-07-20T07:03:34;13.60;13.00;8.20
21358;PMS7003;13506;50.852;20.632;2023-07-20T07:06:03;13.80;13.20;8.60
21358;PMS7003;13506;50.852;20.632;2023-07-20T07:08:31;11.00;11.00;7.00
21358;PMS7003;13506;50.852;20.632;2023-07-20T07:10:59;12.40;10.80;6.00
21358;PMS7003;13506;50.852;20.632;2023-07-20T07:13:27;12.60;12.40;8.40
21358;PMS7003;13506;50.852;20.632;2023-07-20T07:15:56;17.00;12.60;7.80
21358;PMS7003;13506;50.852;20.632;2023-07-20T07:18:25;13.20;11.40;7.00
21358;PMS7003;13506;50.852;20.632;2023-07-20T07:20:53;15.20;12.80;7.40
21358;PMS7003;13506;50.852;20.632;2023-07-20T07:23:21;13.40;12.40;7.80
21358;PMS7003;13506;50.852;20.632;2023-07-20T07:25:49;11.20;10.40;6.40
21358;PMS7003;13506;50.852;20.632;2023-07-20T07:28:17;10.60;10.40;6.40
21358;PMS7003;13506;50.852;20.632;2023-07-20T07:30:45;12.50;10.00;7.00
21358;PMS7003;13506;50.852;20.632;2023-07-20T07:33:13;12.80;10.80;7.20
21358;PMS7003;13506;50.852;20.632;2023-07-20T07:35:42;14.00;11.50;7.00
21358;PMS7003;13506;50.852;20.632;2023-07-20T07:38:11;13.25;10.50;7.25
21358;PMS7003;13506;50.852;20.632;2023-07-20T07:40:39;12.50;9.25;6.00
21358;PMS7003;13506;50.852;20.632;2023-07-20T07:43:07;8.40;7.60;4.60
21358;PMS7003;13506;50.852;20.632;2023-07-20T07:45:35;9.40;7.00;4.00
21358;PMS7003;13506;50.852;20.632;2023-07-20T07:48:04;9.50;7.75;5.25
21358;PMS7003;13506;50.852;20.632;2023-07-20T07:50:32;7.20;7.20;3.80
21358;PMS7003;13506;50.852;20.632;2023-07-20T07:53:02;7.00;7.00;4.00
21358;PMS7003;13506;50.852;20.632;2023-07-20T07:55:29;10.20;8.40;4.80
21358;PMS7003;13506;50.852;20.632;2023-07-20T07:57:58;9.00;9.00;5.00
21358;PMS7003;13506;50.852;20.632;2023-07-20T08:00:26;7.75;7.25;4.25
21358;PMS7003;13506;50.852;20.632;2023-07-20T08:02:54;6.60;6.60;4.00
21358;PMS7003;13506;50.852;20.632;2023-07-20T08:05:22;6.20;6.20;4.00
21358;PMS7003;13506;50.852;20.632;2023-07-20T08:07:52;8.40;7.60;5.00
21358;PMS7003;13506;50.852;20.632;2023-07-20T08:10:21;8.20;8.00;4.00
21358;PMS7003;13506;50.852;20.632;2023-07-20T08:12:49;6.40;6.20;3.40
21358;PMS7003;13506;50.852;20.632;2023-07-20T08:15:17;7.00;7.00;3.60
21358;PMS7003;13506;50.852;20.632;2023-07-20T08:17:45;5.80;5.00;3.00
21358;PMS7003;13506;50.852;20.632;2023-07-20T08:20:14;6.00;6.00;2.80
21358;PMS7003;13506;50.852;20.632;2023-07-20T08:22:43;5.75;5.75;3.00
21358;PMS7003;13506;50.852;20.632;2023-07-20T08:25:11;5.20;5.20;3.00
21358;PMS7003;13506;50.852;20.632;2023-07-20T08:27:41;5.00;5.00;2.00
21358;PMS7003;13506;50.852;20.632;2023-07-20T08:30:11;5.60;5.60;3.00
21358;PMS7003;13506;50.852;20.632;2023-07-20T08:32:39;6.00;5.00;3.00
21358;PMS7003;13506;50.852;20.632;2023-07-20T08:35:08;5.80;5.80;3.00
21358;PMS7003;13506;50.852;20.632;2023-07-20T08:37:36;4.60;4.60;1.80
21358;PMS7003;13506;50.852;20.632;2023-07-20T08:40:04;7.40;6.00;3.00
21358;PMS7003;13506;50.852;20.632;2023-07-20T08:42:35;5.50;5.00;2.00
21358;PMS7003;13506;50.852;20.632;2023-07-20T08:45:07;6.00;6.00;3.00
21358;PMS7003;13506;50.852;20.632;2023-07-20T08:47:36;5.25;5.00;3.00
21358;PMS7003;13506;50.852;20.632;2023-07-20T08:50:05;6.25;5.00;2.00
21358;PMS7003;13506;50.852;20.632;2023-07-20T08:52:36;5.75;5.25;3.00
21358;PMS7003;13506;50.852;20.632;2023-07-20T08:55:04;5.00;5.00;2.50
21358;PMS7003;13506;50.852;20.632;2023-07-20T08:57:34;5.50;5.50;2.25
21358;PMS7003;13506;50.852;20.632;2023-07-20T09:00:09;4.50;4.50;2.25
21358;PMS7003;13506;50.852;20.632;2023-07-20T09:02:39;6.00;6.00;3.00
21358;PMS7003;13506;50.852;20.632;2023-07-20T09:05:09;5.00;5.00;1.75
21358;PMS7003;13506;50.852;20.632;2023-07-20T09:07:39;5.00;5.00;2.00
21358;PMS7003;13506;50.852;20.632;2023-07-20T09:10:07;9.00;7.00;4.00
21358;PMS7003;13506;50.852;20.632;2023-07-20T09:12:37;5.20;5.20;2.60
21358;PMS7003;13506;50.852;20.632;2023-07-20T09:15:07;5.00;5.00;2.00
21358;PMS7003;13506;50.852;20.632;2023-07-20T09:17:38;5.20;5.20;2.80
21358;PMS7003;13506;50.852;20.632;2023-07-20T09:20:06;9.50;7.25;4.00
21358;PMS7003;13506;50.852;20.632;2023-07-20T09:22:37;6.75;6.00;3.75
21358;PMS7003;13506;50.852;20.632;2023-07-20T09:25:06;7.00;6.25;4.00
21358;PMS7003;13506;50.852;20.632;2023-07-20T09:27:38;7.00;7.00;3.25
21358;PMS7003;13506;50.852;20.632;2023-07-20T09:30:07;6.50;6.00;3.50
21358;PMS7003;13506;50.852;20.632;2023-07-20T09:32:39;7.50;7.50;3.75
21358;PMS7003;13506;50.852;20.632;2023-07-20T09:35:12;6.75;6.50;3.50
21358;PMS7003;13506;50.852;20.632;2023-07-20T09:37:42;7.00;6.80;3.00
21358;PMS7003;13506;50.852;20.632;2023-07-20T09:40:17;7.00;7.00;3.20
21358;PMS7003;13506;50.852;20.632;2023-07-20T09:42:47;7.50;6.25;3.00
21358;PMS7003;13506;50.852;20.632;2023-07-20T09:45:19;5.75;5.50;2.00
21358;PMS7003;13506;50.852;20.632;2023-07-20T09:47:48;7.40;7.00;3.20
21358;PMS7003;13506;50.852;20.632;2023-07-20T09:50:16;7.00;6.00;3.00
21358;PMS7003;13506;50.852;20.632;2023-07-20T09:52:45;5.80;5.80;3.00
21358;PMS7003;13506;50.852;20.632;2023-07-20T09:55:13;6.00;6.00;4.00
21358;PMS7003;13506;50.852;20.632;2023-07-20T09:57:41;7.00;7.00;4.20
21358;PMS7003;13506;50.852;20.632;2023-07-20T10:00:10;8.40;7.60;4.20
21358;PMS7003;13506;50.852;20.632;2023-07-20T10:02:42;5.60;5.60;3.20
21358;PMS7003;13506;50.852;20.632;2023-07-20T10:05:12;6.00;5.00;2.80
21358;PMS7003;13506;50.852;20.632;2023-07-20T10:07:43;5.60;5.60;2.40
21358;PMS7003;13506;50.852;20.632;2023-07-20T10:10:14;5.80;5.00;2.80
21358;PMS7003;13506;50.852;20.632;2023-07-20T10:12:44;4.80;4.80;2.80
21358;PMS7003;13506;50.852;20.632;2023-07-20T10:15:15;5.00;5.00;2.00
21358;PMS7003;13506;50.852;20.632;2023-07-20T10:17:53;7.50;6.00;3.00
21358;PMS7003;13506;50.852;20.632;2023-07-20T10:20:29;5.00;5.00;2.00
21358;PMS7003;13506;50.852;20.632;2023-07-20T10:22:58;7.00;6.00;3.00
21358;PMS7003;13506;50.852;20.632;2023-07-20T10:25:28;6.80;6.00;3.00
21358;PMS7003;13506;50.852;20.632;2023-07-20T10:27:57;6.75;6.00;3.25
21358;PMS7003;13506;50.852;20.632;2023-07-20T10:30:26;6.20;6.20;3.40
21358;PMS7003;13506;50.852;20.632;2023-07-20T10:32:56;9.25;8.25;5.00
21358;PMS7003;13506;50.852;20.632;2023-07-20T10:35:28;6.00;6.00;3.00
21358;PMS7003;13506;50.852;20.632;2023-07-20T10:38:00;7.50;7.50;4.75
21358;PMS7003;13506;50.852;20.632;2023-07-20T10:40:30;8.25;6.75;4.50
21358;PMS7003;13506;50.852;20.632;2023-07-20T10:43:00;7.25;7.25;3.75
21358;PMS7003;13506;50.852;20.632;2023-07-20T10:48:18;9.75;9.00;5.50
21358;PMS7003;13506;50.852;20.632;2023-07-20T10:53:36;8.20;7.40;4.40
21358;PMS7003;13506;50.852;20.632;2023-07-20T10:56:07;9.25;8.75;4.00
21358;PMS7003;13506;50.852;20.632;2023-07-20T10:58:39;8.20;8.20;5.20
21358;PMS7003;13506;50.852;20.632;2023-07-20T11:01:07;9.75;9.00;5.50
21358;PMS7003;13506;50.852;20.632;2023-07-20T11:03:41;11.25;11.00;7.00
21358;PMS7003;13506;50.852;20.632;2023-07-20T11:09:06;9.75;9.75;6.75
21358;PMS7003;13506;50.852;20.632;2023-07-20T11:11:37;11.25;9.00;6.00
21358;PMS7003;13506;50.852;20.632;2023-07-20T11:14:06;11.00;9.75;6.50
21358;PMS7003;13506;50.852;20.632;2023-07-20T11:16:40;11.75;11.75;7.00
21358;PMS7003;13506;50.852;20.632;2023-07-20T11:19:17;15.50;13.50;8.75
21358;PMS7003;13506;50.852;20.632;2023-07-20T11:21:46;14.00;12.25;8.25
21358;PMS7003;13506;50.852;20.632;2023-07-20T11:24:18;13.00;12.25;7.75
21358;PMS7003;13506;50.852;20.632;2023-07-20T11:26:47;13.50;13.50;8.00
21358;PMS7003;13506;50.852;20.632;2023-07-20T11:29:17;10.50;10.50;7.00
21358;PMS7003;13506;50.852;20.632;2023-07-20T11:31:46;18.00;13.75;8.25
21358;PMS7003;13506;50.852;20.632;2023-07-20T11:34:18;12.50;12.00;8.00
21358;PMS7003;13506;50.852;20.632;2023-07-20T11:36:48;19.50;15.00;9.25
21358;PMS7003;13506;50.852;20.632;2023-07-20T11:39:18;17.25;17.00;10.50
21358;PMS7003;13506;50.852;20.632;2023-07-20T11:41:49;21.75;19.50;10.75
21358;PMS7003;13506;50.852;20.632;2023-07-20T11:44:18;17.50;17.00;10.00
21358;PMS7003;13506;50.852;20.632;2023-07-20T11:46:59;17.25;17.25;11.00
21358;PMS7003;13506;50.852;20.632;2023-07-20T11:49:30;15.25;13.75;9.75
21358;PMS7003;13506;50.852;20.632;2023-07-20T11:52:02;18.50;16.25;10.25
21358;PMS7003;13506;50.852;20.632;2023-07-20T11:54:32;19.50;17.25;10.25
21358;PMS7003;13506;50.852;20.632;2023-07-20T11:57:00;12.50;12.50;8.00
21358;PMS7003;13506;50.852;20.632;2023-07-20T11:59:29;17.75;16.00;10.75
21358;PMS7003;13506;50.852;20.632;2023-07-20T12:01:58;18.00;15.00;10.00
21358;PMS7003;13506;50.852;20.632;2023-07-20T12:04:28;17.25;17.00;10.00
21358;PMS7003;13506;50.852;20.632;2023-07-20T12:06:58;15.25;15.00;9.00
21358;PMS7003;13506;50.852;20.632;2023-07-20T12:09:26;17.25;16.00;10.00
21358;PMS7003;13506;50.852;20.632;2023-07-20T12:11:54;20.75;18.25;10.50
21358;PMS7003;13506;50.852;20.632;2023-07-20T12:14:24;17.00;15.00;9.50
21358;PMS7003;13506;50.852;20.632;2023-07-20T12:16:53;16.75;14.25;8.00
21358;PMS7003;13506;50.852;20.632;2023-07-20T12:19:24;12.25;10.75;6.75
21358;PMS7003;13506;50.852;20.632;2023-07-20T12:21:56;10.75;9.75;7.00
21358;PMS7003;13506;50.852;20.632;2023-07-20T12:24:25;10.50;9.75;6.00
21358;PMS7003;13506;50.852;20.632;2023-07-20T12:26:55;10.00;10.00;6.25
21358;PMS7003;13506;50.852;20.632;2023-07-20T12:29:25;9.50;9.50;5.75
21358;PMS7003;13506;50.852;20.632;2023-07-20T12:31:53;11.50;11.00;6.25
21358;PMS7003;13506;50.852;20.632;2023-07-20T12:34:21;11.50;10.25;6.00
21358;PMS7003;13506;50.852;20.632;2023-07-20T12:36:49;9.75;9.00;5.00
21358;PMS7003;13506;50.852;20.632;2023-07-20T12:39:19;12.25;11.00;7.00
21358;PMS7003;13506;50.852;20.632;2023-07-20T12:41:47;13.25;12.25;8.00
21358;PMS7003;13506;50.852;20.632;2023-07-20T12:44:15;14.00;12.00;7.25
21358;PMS7003;13506;50.852;20.632;2023-07-20T12:46:43;14.00;13.00;8.00
21358;PMS7003;13506;50.852;20.632;2023-07-20T12:49:11;13.00;11.50;8.00
21358;PMS7003;13506;50.852;20.632;2023-07-20T12:51:38;10.25;10.25;6.25
21358;PMS7003;13506;50.852;20.632;2023-07-20T12:54:07;12.75;12.50;8.00
21358;PMS7003;13506;50.852;20.632;2023-07-20T12:56:36;11.00;11.00;7.75
21358;PMS7003;13506;50.852;20.632;2023-07-20T12:59:04;13.00;12.75;7.25
21358;PMS7003;13506;50.852;20.632;2023-07-20T13:01:32;14.25;14.25;9.00
21358;PMS7003;13506;50.852;20.632;2023-07-20T13:04:00;16.50;12.00;8.00
21358;PMS7003;13506;50.852;20.632;2023-07-20T13:06:29;13.50;13.00;7.00
21358;PMS7003;13506;50.852;20.632;2023-07-20T13:08:57;11.50;10.00;6.00
21358;PMS7003;13506;50.852;20.632;2023-07-20T13:11:25;12.75;12.75;7.25
21358;PMS7003;13506;50.852;20.632;2023-07-20T13:13:54;12.00;10.25;6.00
21358;PMS7003;13506;50.852;20.632;2023-07-20T13:16:22;13.75;10.75;6.00
21358;PMS7003;13506;50.852;20.632;2023-07-20T13:18:50;11.25;10.25;6.25
21358;PMS7003;13506;50.852;20.632;2023-07-20T13:21:19;11.50;11.00;7.00
21358;PMS7003;13506;50.852;20.632;2023-07-20T13:23:48;14.25;12.50;7.00
21358;PMS7003;13506;50.852;20.632;2023-07-20T13:26:16;9.00;9.00;6.00
21358;PMS7003;13506;50.852;20.632;2023-07-20T13:28:44;11.00;11.00;6.50
21358;PMS7003;13506;50.852;20.632;2023-07-20T13:31:13;9.25;8.00;4.25
21358;PMS7003;13506;50.852;20.632;2023-07-20T13:33:43;11.25;10.00;6.00
21358;PMS7003;13506;50.852;20.632;2023-07-20T13:36:11;8.75;8.75;3.75
21358;PMS7003;13506;50.852;20.632;2023-07-20T13:38:39;8.75;8.00;5.00
21358;PMS7003;13506;50.852;20.632;2023-07-20T13:41:07;8.00;6.25;4.00
21358;PMS7003;13506;50.852;20.632;2023-07-20T13:43:35;6.75;6.50;4.00
21358;PMS7003;13506;50.852;20.632;2023-07-20T13:46:03;7.50;7.50;4.00
21358;PMS7003;13506;50.852;20.632;2023-07-20T13:48:32;6.75;5.75;3.00
21358;PMS7003;13506;50.852;20.632;2023-07-20T13:51:00;6.75;6.00;2.25
21358;PMS7003;13506;50.852;20.632;2023-07-20T13:53:29;7.00;7.00;4.00
21358;PMS7003;13506;50.852;20.632;2023-07-20T13:55:56;6.00;6.00;3.00
21358;PMS7003;13506;50.852;20.632;2023-07-20T13:58:25;9.75;6.75;3.75
21358;PMS7003;13506;50.852;20.632;2023-07-20T14:00:53;6.00;6.00;4.00
21358;PMS7003;13506;50.852;20.632;2023-07-20T14:03:22;7.00;7.00;4.50
21358;PMS7003;13506;50.852;20.632;2023-07-20T14:05:51;6.00;6.00;4.00
21358;PMS7003;13506;50.852;20.632;2023-07-20T14:08:20;7.25;7.25;4.00